Decatur, Iowa
Current Conditions -  °F | °C
As of 3:53 AM on Thursday 18 Dec 2014 (Local Time) from KLWD Reporting Station
Overcast Overcast  
Wind Chill: 18°   Ceiling: 6500
Heat Index: 25°   Visibility: 10mi
Dew Point: 19°   Wind: 6mph
Humidity: 78%   Direction: 90°E
Pressure: 30.23"   Gusts: NA
Location:  40.74°N, 93.84°W
Report Text: KLWD 180953Z AUTO 09005KT 10SM BKN065 OVC080 M04/M07 A3023 RMK AO2 SLP254 T10391072
Loading
Personal Weather Stations






























Interactive Weather Map New forecast layout! Learn more

10-Day Weather Forecast

Advertisements
Track Severe Weather on mobile